createdAt,value
2023-02-28T00:00:22.417Z,3.80
2023-02-28T00:02:50.692Z,3.70
2023-02-28T00:05:21.835Z,4.18
2023-02-28T00:07:50.581Z,4.53
2023-02-28T00:10:21.633Z,4.90
2023-02-28T00:12:49.966Z,4.35
2023-02-28T00:15:18.546Z,4.78
2023-02-28T00:17:46.861Z,5.10
2023-02-28T00:20:16.627Z,5.07
2023-02-28T00:22:48.534Z,5.47
2023-02-28T00:25:19.102Z,5.35
2023-02-28T00:27:47.763Z,6.65
2023-02-28T00:30:18.980Z,6.10
2023-02-28T00:32:47.296Z,5.20
2023-02-28T00:35:15.934Z,4.75
2023-02-28T00:37:45.576Z,4.40
2023-02-28T00:40:14.094Z,3.65
2023-02-28T00:42:42.524Z,4.80
2023-02-28T00:45:11.733Z,4.05
2023-02-28T00:47:39.952Z,4.25
2023-02-28T00:50:09.965Z,3.50
2023-02-28T00:52:38.274Z,3.40
2023-02-28T00:55:09.090Z,2.92
2023-02-28T00:57:37.379Z,3.47
2023-02-28T01:00:07.182Z,3.83
2023-02-28T01:02:35.437Z,3.55
2023-02-28T01:05:03.817Z,4.03
2023-02-28T01:07:32.702Z,3.22
2023-02-28T01:10:00.982Z,3.10
2023-02-28T01:12:31.121Z,3.45
2023-02-28T01:14:59.822Z,3.88
2023-02-28T01:17:28.122Z,2.95
2023-02-28T01:19:57.044Z,3.40
2023-02-28T01:22:25.282Z,2.97
2023-02-28T01:24:53.912Z,2.42
2023-02-28T01:27:22.231Z,2.90
2023-02-28T01:29:52.947Z,3.22
2023-02-28T01:32:21.321Z,2.80
2023-02-28T01:34:49.628Z,2.55
2023-02-28T01:37:17.923Z,2.92
2023-02-28T01:39:46.152Z,2.80
2023-02-28T01:42:14.479Z,3.10
2023-02-28T01:45:03.078Z,3.00
2023-02-28T01:47:34.630Z,3.47
2023-02-28T01:50:06.663Z,3.30
2023-02-28T01:52:35.022Z,2.85
2023-02-28T01:55:04.442Z,2.80
2023-02-28T01:57:38.813Z,2.70
2023-02-28T02:00:11.554Z,2.80
2023-02-28T02:02:39.895Z,3.15
2023-02-28T02:05:11.938Z,3.08
2023-02-28T02:07:42.101Z,2.80
2023-02-28T02:10:15.800Z,3.20
2023-02-28T02:13:20.195Z,2.90
2023-02-28T02:15:57.289Z,2.78
2023-02-28T02:18:31.005Z,3.45
2023-02-28T02:21:40.390Z,2.90
2023-02-28T02:24:50.401Z,3.30
2023-02-28T02:27:27.631Z,2.92
2023-02-28T02:30:35.599Z,2.70
2023-02-28T02:33:52.025Z,2.85
2023-02-28T02:36:24.116Z,2.72
2023-02-28T02:38:54.130Z,3.03
2023-02-28T02:41:27.239Z,3.03
2023-02-28T02:43:58.451Z,3.30
2023-02-28T02:46:29.602Z,2.67
2023-02-28T02:48:58.117Z,3.05
2023-02-28T02:51:28.051Z,2.08
2023-02-28T02:53:59.933Z,2.92
2023-02-28T02:56:30.587Z,2.97
2023-02-28T02:59:03.408Z,3.30
2023-02-28T03:01:32.213Z,3.63
2023-02-28T03:04:04.766Z,2.50
2023-02-28T03:06:34.481Z,2.88
2023-02-28T03:09:02.756Z,3.70
2023-02-28T03:11:31.371Z,3.00
2023-02-28T03:14:32.215Z,2.88
2023-02-28T03:17:33.083Z,2.90
2023-02-28T03:20:09.551Z,2.90
2023-02-28T03:22:54.323Z,3.00
2023-02-28T03:25:29.681Z,3.30
2023-02-28T03:28:08.188Z,2.90
2023-02-28T03:30:42.586Z,3.10
2023-02-28T03:33:13.630Z,3.45
2023-02-28T03:35:45.549Z,3.90
2023-02-28T03:38:17.894Z,3.10
2023-02-28T03:40:50.544Z,4.50
2023-02-28T03:43:23.900Z,3.80
2023-02-28T03:45:52.403Z,4.40
2023-02-28T03:48:23.751Z,3.85
2023-02-28T03:50:54.168Z,3.95
2023-02-28T03:53:27.075Z,4.38
2023-02-28T03:55:58.803Z,4.25
2023-02-28T03:58:30.206Z,3.80
2023-02-28T04:01:08.517Z,4.10
2023-02-28T04:03:37.887Z,3.40
2023-02-28T04:06:06.902Z,3.70
2023-02-28T04:08:36.616Z,4.00
2023-02-28T04:11:08.830Z,4.10
2023-02-28T04:13:37.166Z,4.03
2023-02-28T04:16:18.840Z,3.05
2023-02-28T04:18:49.910Z,4.13
2023-02-28T04:21:21.592Z,4.22
2023-02-28T04:23:51.316Z,3.50
2023-02-28T04:26:19.544Z,4.10
2023-02-28T04:28:47.827Z,4.10
2023-02-28T04:31:16.044Z,4.85
2023-02-28T04:33:44.503Z,4.32
2023-02-28T04:36:14.212Z,4.70
2023-02-28T04:38:42.477Z,4.57
2023-02-28T04:41:12.180Z,4.95
2023-02-28T04:43:40.444Z,4.30
2023-02-28T04:46:08.802Z,4.40
2023-02-28T04:48:38.417Z,4.40
2023-02-28T04:51:08.165Z,4.93
2023-02-28T04:53:36.548Z,4.70
2023-02-28T04:56:05.075Z,4.13
2023-02-28T04:58:34.753Z,4.70
2023-02-28T05:01:13.681Z,4.20
2023-02-28T05:03:42.615Z,4.13
2023-02-28T05:06:10.968Z,3.83
2023-02-28T05:08:39.346Z,4.95
2023-02-28T05:11:09.549Z,4.13
2023-02-28T05:13:39.685Z,4.20
2023-02-28T05:16:09.040Z,4.45
2023-02-28T05:18:37.419Z,4.55
2023-02-28T05:21:05.985Z,3.78
2023-02-28T05:23:34.575Z,4.57
2023-02-28T05:26:02.914Z,4.65
2023-02-28T05:28:31.211Z,5.05
2023-02-28T05:31:00.794Z,5.57
2023-02-28T05:33:29.123Z,4.45
2023-02-28T05:35:57.380Z,4.97
2023-02-28T05:38:25.777Z,5.00
2023-02-28T05:40:54.406Z,4.72
2023-02-28T05:43:22.664Z,5.10
2023-02-28T05:45:50.979Z,4.93
2023-02-28T05:48:20.640Z,5.25
2023-02-28T05:50:48.900Z,5.13
2023-02-28T05:53:17.121Z,4.65
2023-02-28T05:55:45.366Z,5.25
2023-02-28T05:58:13.618Z,5.07
2023-02-28T06:00:42.447Z,4.38
2023-02-28T06:03:10.778Z,4.97
2023-02-28T06:05:40.565Z,5.30
2023-02-28T06:08:09.064Z,5.38
2023-02-28T06:10:37.417Z,5.03
2023-02-28T06:13:05.838Z,3.95
2023-02-28T06:15:34.203Z,4.93
2023-02-28T06:18:02.736Z,7.20
2023-02-28T06:20:31.120Z,5.40
2023-02-28T06:23:00.820Z,5.72
2023-02-28T06:25:29.219Z,6.60
2023-02-28T06:27:57.583Z,6.47
2023-02-28T06:30:27.752Z,6.40
2023-02-28T06:32:56.426Z,6.80
2023-02-28T06:35:24.742Z,6.68
2023-02-28T06:37:53.067Z,4.97
2023-02-28T06:40:22.762Z,4.85
2023-02-28T06:42:51.031Z,5.72
2023-02-28T06:45:19.520Z,6.03
2023-02-28T06:47:53.149Z,5.25
2023-02-28T06:50:21.596Z,6.05
2023-02-28T06:52:54.815Z,5.63
2023-02-28T06:55:24.530Z,7.00
2023-02-28T06:57:52.780Z,5.85
2023-02-28T07:00:22.052Z,6.80
2023-02-28T07:02:50.329Z,5.88
2023-02-28T07:05:18.821Z,6.00
2023-02-28T07:07:48.250Z,6.43
2023-02-28T07:10:20.125Z,7.70
2023-02-28T07:12:49.985Z,7.13
2023-02-28T07:15:18.498Z,7.65
2023-02-28T07:17:46.757Z,7.45
2023-02-28T07:20:15.629Z,7.55
2023-02-28T07:22:44.018Z,6.63
2023-02-28T07:25:12.296Z,6.57
2023-02-28T07:27:42.240Z,8.10
2023-02-28T07:30:13.900Z,7.07
2023-02-28T07:32:44.747Z,8.70
2023-02-28T07:35:13.347Z,7.53
2023-02-28T07:37:42.497Z,8.35
2023-02-28T07:40:13.497Z,7.95
2023-02-28T07:42:42.771Z,7.30
2023-02-28T07:45:13.556Z,8.38
2023-02-28T07:47:42.054Z,6.20
2023-02-28T07:50:12.401Z,7.40
2023-02-28T07:52:40.906Z,7.85
2023-02-28T07:55:10.295Z,7.45
2023-02-28T07:57:38.599Z,8.30
2023-02-28T08:00:08.452Z,10.27
2023-02-28T08:02:38.182Z,7.40
2023-02-28T08:05:07.812Z,5.72
2023-02-28T08:07:36.173Z,6.05
2023-02-28T08:10:06.603Z,5.60
2023-02-28T08:12:34.890Z,4.35
2023-02-28T08:15:03.177Z,5.10
2023-02-28T08:17:33.251Z,5.18
2023-02-28T08:20:05.011Z,4.10
2023-02-28T08:22:33.299Z,4.95
2023-02-28T08:25:01.600Z,4.45
2023-02-28T08:27:29.858Z,4.30
2023-02-28T08:29:58.207Z,4.57
2023-02-28T08:32:30.111Z,4.85
2023-02-28T08:34:58.789Z,4.22
2023-02-28T08:37:28.438Z,3.50
2023-02-28T08:39:56.788Z,3.85
2023-02-28T08:42:25.229Z,4.40
2023-02-28T08:44:53.556Z,3.70
2023-02-28T08:47:21.857Z,4.22
2023-02-28T08:49:50.161Z,3.20
2023-02-28T08:52:18.781Z,2.67
2023-02-28T08:54:49.282Z,3.28
2023-02-28T08:57:17.544Z,4.05
2023-02-28T08:59:45.850Z,3.67
2023-02-28T09:02:15.464Z,3.20
2023-02-28T09:04:46.369Z,2.72
2023-02-28T09:07:14.974Z,2.95
2023-02-28T09:09:54.572Z,3.03
2023-02-28T09:12:24.680Z,2.42
2023-02-28T09:14:53.037Z,2.58
2023-02-28T09:17:21.500Z,2.78
2023-02-28T09:19:51.482Z,2.30
2023-02-28T09:22:20.012Z,2.60
2023-02-28T09:24:48.326Z,2.60
2023-02-28T09:27:16.698Z,2.13
2023-02-28T09:29:46.351Z,4.10
2023-02-28T09:32:14.707Z,2.60
2023-02-28T09:34:43.100Z,4.43
2023-02-28T09:37:11.488Z,13.90
2023-02-28T09:39:39.821Z,6.33
2023-02-28T09:42:08.726Z,1.77
2023-02-28T09:44:39.542Z,1.50
2023-02-28T09:47:15.265Z,1.40
2023-02-28T09:49:47.183Z,1.17
2023-02-28T09:52:19.235Z,2.17
2023-02-28T09:54:48.305Z,2.30
2023-02-28T09:57:21.131Z,2.00
2023-02-28T10:00:00.744Z,2.00
2023-02-28T10:02:54.838Z,1.57
2023-02-28T10:05:24.720Z,1.50
2023-02-28T10:08:09.014Z,2.13
2023-02-28T10:10:41.651Z,1.40
2023-02-28T10:13:18.786Z,1.93
2023-02-28T10:15:48.274Z,1.50
2023-02-28T10:18:21.141Z,1.60
2023-02-28T10:20:49.542Z,1.47
2023-02-28T10:23:22.869Z,2.00
2023-02-28T10:25:56.262Z,1.40
2023-02-28T10:28:24.577Z,1.60
2023-02-28T10:30:53.940Z,1.90
2023-02-28T10:33:25.952Z,2.10
2023-02-28T10:35:54.646Z,1.60
2023-02-28T10:38:25.115Z,1.80
2023-02-28T10:40:53.685Z,2.07
2023-02-28T10:43:23.983Z,2.17
2023-02-28T10:46:06.181Z,1.73
2023-02-28T10:48:41.093Z,2.00
2023-02-28T10:51:10.387Z,1.73
2023-02-28T10:53:59.708Z,1.50
2023-02-28T10:56:29.517Z,1.87
2023-02-28T10:59:01.574Z,1.50
2023-02-28T11:01:39.041Z,1.80
2023-02-28T11:04:20.719Z,1.90
2023-02-28T11:06:49.070Z,2.00
2023-02-28T11:09:23.915Z,2.30
2023-02-28T11:11:53.586Z,2.20
2023-02-28T11:14:23.611Z,1.87
2023-02-28T11:16:52.019Z,2.33
2023-02-28T11:19:25.093Z,1.93
2023-02-28T11:21:57.165Z,1.90
2023-02-28T11:24:27.764Z,1.97
2023-02-28T11:26:56.254Z,1.67
2023-02-28T11:29:26.023Z,2.37
2023-02-28T11:32:12.391Z,2.40
2023-02-28T11:34:42.589Z,2.13
2023-02-28T11:37:15.627Z,2.53
2023-02-28T11:39:44.432Z,2.57
2023-02-28T11:42:34.427Z,2.93
2023-02-28T11:45:16.201Z,3.07
2023-02-28T11:47:49.690Z,2.17
2023-02-28T11:50:29.905Z,2.17
2023-02-28T11:53:00.831Z,2.13
2023-02-28T11:55:30.321Z,2.80
2023-02-28T11:58:40.692Z,2.53
2023-02-28T12:01:24.612Z,2.20
2023-02-28T12:04:03.786Z,2.67
2023-02-28T12:06:36.397Z,2.50
2023-02-28T12:09:25.669Z,2.20
2023-02-28T12:11:56.244Z,2.33
2023-02-28T12:14:56.502Z,2.50
2023-02-28T12:17:36.956Z,2.77
2023-02-28T12:20:15.339Z,2.00
2023-02-28T12:22:48.013Z,2.40
2023-02-28T12:25:47.896Z,2.63
2023-02-28T12:28:18.026Z,2.83
2023-02-28T12:30:52.434Z,2.80
2023-02-28T12:33:22.916Z,2.33
2023-02-28T12:35:56.488Z,2.53
2023-02-28T12:38:27.948Z,2.70
2023-02-28T12:41:00.766Z,2.30
2023-02-28T12:43:33.124Z,2.20
2023-02-28T12:46:03.458Z,2.57
2023-02-28T12:48:36.039Z,2.30
2023-02-28T12:51:04.470Z,2.50
2023-02-28T12:53:40.801Z,2.30
2023-02-28T12:56:14.894Z,2.47
2023-02-28T12:58:45.416Z,3.10
2023-02-28T13:01:44.663Z,2.43
2023-02-28T13:05:08.809Z,2.43
2023-02-28T13:08:02.414Z,2.47
2023-02-28T13:10:42.966Z,2.23
2023-02-28T13:13:18.588Z,2.50
2023-02-28T13:16:05.349Z,3.03
2023-02-28T13:18:40.646Z,2.73
2023-02-28T13:21:09.851Z,1.90
2023-02-28T13:24:03.626Z,1.97
2023-02-28T13:27:32.952Z,2.43
2023-02-28T13:30:03.213Z,2.70
2023-02-28T13:32:41.152Z,2.63
2023-02-28T13:35:37.566Z,2.30
2023-02-28T13:38:36.970Z,4.00
2023-02-28T13:41:50.767Z,3.60
2023-02-28T13:44:23.837Z,3.20
2023-02-28T13:47:23.151Z,2.80
2023-02-28T13:49:53.673Z,2.50
2023-02-28T13:52:25.985Z,3.00
2023-02-28T13:55:23.037Z,2.30
2023-02-28T13:58:03.031Z,2.53
2023-02-28T14:00:42.419Z,2.90
2023-02-28T14:03:28.557Z,2.20
2023-02-28T14:06:18.888Z,2.10
2023-02-28T14:08:54.559Z,2.03
2023-02-28T14:11:32.690Z,2.30
2023-02-28T14:14:01.013Z,2.43
2023-02-28T14:16:31.085Z,2.47
2023-02-28T14:19:04.536Z,3.13
2023-02-28T14:21:35.124Z,2.63
2023-02-28T14:24:42.638Z,2.70
2023-02-28T14:27:29.156Z,2.50
2023-02-28T14:30:43.430Z,3.03
2023-02-28T14:33:28.385Z,3.20
2023-02-28T14:36:05.623Z,3.20
2023-02-28T14:38:37.483Z,2.33
2023-02-28T14:41:08.842Z,2.67
2023-02-28T14:43:37.711Z,2.23
2023-02-28T14:46:07.009Z,3.57
2023-02-28T14:48:35.337Z,3.53
2023-02-28T14:51:05.130Z,3.07
2023-02-28T14:53:38.397Z,3.10
2023-02-28T14:56:07.656Z,3.40
2023-02-28T14:58:36.123Z,3.87
2023-02-28T15:01:06.126Z,3.63
2023-02-28T15:03:36.233Z,4.00
2023-02-28T15:06:07.833Z,3.87
2023-02-28T15:08:37.344Z,5.60
2023-02-28T15:11:07.362Z,3.50
2023-02-28T15:13:39.643Z,2.90
2023-02-28T15:16:11.426Z,2.63
2023-02-28T15:18:47.276Z,4.73
2023-02-28T15:21:19.615Z,5.43
2023-02-28T15:23:51.736Z,4.77
2023-02-28T15:26:22.089Z,5.63
2023-02-28T15:28:51.673Z,4.47
2023-02-28T15:31:24.447Z,2.97
2023-02-28T15:33:56.969Z,3.47
2023-02-28T15:36:32.839Z,2.97
2023-02-28T15:39:14.277Z,3.40
2023-02-28T15:41:44.110Z,2.73
2023-02-28T15:44:30.502Z,3.33
2023-02-28T15:47:03.593Z,4.57
2023-02-28T15:49:44.873Z,4.07
2023-02-28T15:52:17.714Z,3.60
2023-02-28T15:54:46.121Z,3.63
2023-02-28T15:57:17.304Z,3.30
2023-02-28T15:59:52.073Z,3.70
2023-02-28T16:02:21.957Z,3.30
2023-02-28T16:05:21.618Z,2.83
2023-02-28T16:07:51.281Z,2.47
2023-02-28T16:10:19.774Z,3.90
2023-02-28T16:12:48.100Z,3.83
2023-02-28T16:15:21.826Z,3.90
2023-02-28T16:17:50.253Z,2.97
2023-02-28T16:20:20.065Z,3.00
2023-02-28T16:22:48.300Z,3.50
2023-02-28T16:25:19.971Z,3.47
2023-02-28T16:27:51.281Z,3.33
2023-02-28T16:30:23.039Z,3.30
2023-02-28T16:32:52.017Z,3.17
2023-02-28T16:35:20.857Z,3.23
2023-02-28T16:37:49.197Z,3.20
2023-02-28T16:40:21.923Z,3.90
2023-02-28T16:42:51.167Z,7.90
2023-02-28T16:45:25.512Z,16.00
2023-02-28T16:47:53.845Z,11.40
2023-02-28T16:50:23.332Z,9.70
2023-02-28T16:52:53.164Z,7.30
2023-02-28T16:55:23.163Z,6.03
2023-02-28T16:57:54.019Z,4.67
2023-02-28T17:00:22.940Z,4.67
2023-02-28T17:02:51.729Z,5.17
2023-02-28T17:05:20.331Z,5.07
2023-02-28T17:07:48.881Z,4.87
2023-02-28T17:10:18.681Z,4.93
2023-02-28T17:12:48.424Z,5.53
2023-02-28T17:15:18.233Z,4.70
2023-02-28T17:17:46.601Z,7.17
2023-02-28T17:20:18.353Z,22.33
2023-02-28T17:22:46.604Z,22.63
2023-02-28T17:25:14.935Z,13.82
2023-02-28T17:27:43.258Z,11.00
2023-02-28T17:30:16.979Z,7.70
2023-02-28T17:32:45.306Z,5.30
2023-02-28T17:35:13.674Z,6.73
2023-02-28T17:37:42.077Z,9.27
2023-02-28T17:40:15.786Z,9.73
2023-02-28T17:42:44.430Z,10.13
2023-02-28T17:45:14.297Z,8.00
2023-02-28T17:47:42.621Z,8.15
2023-02-28T17:50:15.265Z,9.55
2023-02-28T17:52:43.607Z,12.48
2023-02-28T17:55:12.818Z,12.05
2023-02-28T17:57:42.774Z,20.00
2023-02-28T18:00:16.874Z,17.85
2023-02-28T18:02:45.235Z,19.55
2023-02-28T18:05:13.520Z,24.40
2023-02-28T18:07:42.036Z,18.45
2023-02-28T18:10:16.956Z,13.07
2023-02-28T18:12:45.239Z,11.50
2023-02-28T18:15:15.353Z,9.70
2023-02-28T18:17:43.693Z,8.90
2023-02-28T18:20:12.848Z,7.47
2023-02-28T18:22:41.701Z,8.70
2023-02-28T18:25:14.608Z,9.18
2023-02-28T18:27:53.805Z,9.35
2023-02-28T18:30:23.883Z,9.30
2023-02-28T18:32:52.187Z,9.00
2023-02-28T18:35:35.107Z,9.30
2023-02-28T18:38:05.872Z,8.73
2023-02-28T18:40:34.251Z,10.77
2023-02-28T18:43:02.910Z,9.30
2023-02-28T18:45:33.169Z,11.23
2023-02-28T18:48:01.480Z,11.60
2023-02-28T18:50:29.721Z,12.52
2023-02-28T18:52:59.223Z,15.90
2023-02-28T18:55:27.899Z,17.10
2023-02-28T18:57:56.235Z,17.00
2023-02-28T19:00:25.812Z,16.83
2023-02-28T19:02:55.526Z,15.30
2023-02-28T19:05:23.867Z,15.57
2023-02-28T19:07:52.176Z,13.40
2023-02-28T19:10:20.662Z,15.68
2023-02-28T19:12:48.908Z,15.02
2023-02-28T19:15:17.290Z,36.35
2023-02-28T19:17:46.264Z,28.15
2023-02-28T19:20:16.539Z,18.30
2023-02-28T19:22:45.138Z,17.08
2023-02-28T19:25:13.517Z,16.75
2023-02-28T19:27:41.881Z,13.70
2023-02-28T19:30:12.687Z,12.55
2023-02-28T19:32:41.016Z,14.23
2023-02-28T19:35:10.208Z,12.35
2023-02-28T19:37:40.557Z,12.00
2023-02-28T19:40:11.040Z,11.75
2023-02-28T19:42:39.315Z,11.30
2023-02-28T19:45:10.110Z,10.15
2023-02-28T19:47:38.871Z,10.55
2023-02-28T19:50:08.294Z,10.15
2023-02-28T19:52:36.599Z,12.05
2023-02-28T19:55:07.264Z,10.13
2023-02-28T19:57:35.505Z,10.32
2023-02-28T20:00:04.240Z,11.10
2023-02-28T20:02:32.570Z,20.67
2023-02-28T20:05:01.556Z,18.10
2023-02-28T20:07:29.903Z,20.08
2023-02-28T20:09:58.220Z,15.73
2023-02-28T20:12:27.907Z,14.00
2023-02-28T20:14:57.029Z,18.55
2023-02-28T20:17:25.508Z,17.50
2023-02-28T20:19:53.828Z,16.48
2023-02-28T20:22:22.201Z,16.83
2023-02-28T20:24:50.486Z,17.23
2023-02-28T20:27:18.810Z,17.48
2023-02-28T20:29:48.520Z,19.65
2023-02-28T20:32:16.898Z,20.30
2023-02-28T20:34:45.296Z,24.85
2023-02-28T20:37:13.507Z,25.15
2023-02-28T20:39:41.890Z,27.05
2023-02-28T20:42:10.152Z,29.25
2023-02-28T20:44:38.440Z,28.88
2023-02-28T20:47:08.646Z,24.70
2023-02-28T20:49:36.935Z,21.80
2023-02-28T20:52:05.546Z,20.02
2023-02-28T20:54:36.036Z,17.42
2023-02-28T20:57:04.632Z,16.80
2023-02-28T20:59:33.233Z,15.45
2023-02-28T21:02:01.594Z,13.90
2023-02-28T21:04:31.364Z,15.00
2023-02-28T21:06:59.666Z,14.30
2023-02-28T21:09:28.976Z,13.38
2023-02-28T21:11:57.347Z,12.68
2023-02-28T21:14:26.106Z,14.13
2023-02-28T21:16:54.359Z,14.05
2023-02-28T21:19:22.953Z,13.60
2023-02-28T21:21:52.608Z,13.82
2023-02-28T21:24:21.113Z,14.45
2023-02-28T21:26:49.530Z,16.38
2023-02-28T21:29:17.884Z,14.40
2023-02-28T21:31:46.251Z,15.70
2023-02-28T21:34:14.968Z,14.73
2023-02-28T21:36:45.361Z,15.43
2023-02-28T21:39:16.647Z,16.40
2023-02-28T21:41:44.908Z,14.65
2023-02-28T21:44:18.768Z,15.90
2023-02-28T21:46:47.585Z,17.45
2023-02-28T21:49:16.122Z,17.48
2023-02-28T21:51:44.848Z,16.55
2023-02-28T21:54:14.970Z,15.48
2023-02-28T21:56:43.223Z,15.77
2023-02-28T21:59:12.063Z,18.00
2023-02-28T22:01:41.451Z,16.88
2023-02-28T22:04:11.203Z,16.73
2023-02-28T22:06:40.984Z,17.77
2023-02-28T22:09:10.435Z,18.85
2023-02-28T22:11:40.167Z,19.58
2023-02-28T22:14:11.391Z,17.92
2023-02-28T22:16:51.212Z,17.77
2023-02-28T22:19:21.321Z,16.45
2023-02-28T22:21:50.324Z,14.50
2023-02-28T22:24:20.660Z,13.45
2023-02-28T22:26:51.760Z,14.40
2023-02-28T22:29:20.145Z,12.75
2023-02-28T22:31:48.522Z,13.02
2023-02-28T22:34:16.991Z,16.25
2023-02-28T22:36:46.275Z,20.73
2023-02-28T22:39:14.542Z,17.35
2023-02-28T22:41:42.854Z,16.25
2023-02-28T22:44:12.599Z,15.80
2023-02-28T22:46:40.924Z,16.70
2023-02-28T22:49:09.243Z,17.33
2023-02-28T22:51:37.524Z,16.88
2023-02-28T22:54:06.281Z,16.58
2023-02-28T22:56:34.766Z,15.25
2023-02-28T22:59:03.410Z,15.18
2023-02-28T23:01:34.599Z,15.75
2023-02-28T23:04:03.171Z,16.02
2023-02-28T23:06:33.351Z,16.75
2023-02-28T23:09:03.146Z,16.10
2023-02-28T23:11:33.307Z,16.48
2023-02-28T23:14:01.764Z,17.80
2023-02-28T23:16:33.229Z,16.95
2023-02-28T23:19:02.743Z,15.50
2023-02-28T23:21:31.077Z,16.55
2023-02-28T23:23:59.342Z,15.90
2023-02-28T23:26:27.829Z,15.45
2023-02-28T23:28:56.217Z,15.65
2023-02-28T23:31:24.909Z,15.23
2023-02-28T23:33:54.618Z,16.05
2023-02-28T23:36:22.884Z,15.23
2023-02-28T23:38:52.654Z,14.70
2023-02-28T23:41:21.551Z,15.98
2023-02-28T23:43:49.879Z,16.67
2023-02-28T23:46:18.956Z,15.75
2023-02-28T23:48:47.398Z,14.05
2023-02-28T23:51:19.219Z,13.50
2023-02-28T23:53:48.748Z,13.65
2023-02-28T23:56:18.496Z,12.75
2023-02-28T23:58:46.913Z,14.00
